createdAt,value
2019-03-04T00:01:42.994Z,1.00
2019-03-04T00:03:50.220Z,0.80
2019-03-04T00:05:58.149Z,0.70
2019-03-04T00:08:06.181Z,0.70
2019-03-04T00:10:13.233Z,0.90
2019-03-04T00:12:22.338Z,1.03
2019-03-04T00:14:40.103Z,0.90
2019-03-04T00:16:47.835Z,0.73
2019-03-04T00:18:55.156Z,0.70
2019-03-04T00:21:02.514Z,0.80
2019-03-04T00:23:09.970Z,0.80
2019-03-04T00:25:17.418Z,0.70
2019-03-04T00:27:24.711Z,1.00
2019-03-04T00:29:31.834Z,0.90
2019-03-04T00:31:39.663Z,0.77
2019-03-04T00:33:46.917Z,1.00
2019-03-04T00:35:55.015Z,0.83
2019-03-04T00:38:02.410Z,0.87
2019-03-04T00:40:09.952Z,0.60
2019-03-04T00:42:17.718Z,0.60
2019-03-04T00:44:24.964Z,1.10
2019-03-04T00:46:34.403Z,1.00
2019-03-04T00:48:42.042Z,0.90
2019-03-04T00:50:49.251Z,0.97
2019-03-04T00:53:00.414Z,0.80
2019-03-04T00:55:07.702Z,0.73
2019-03-04T00:57:15.139Z,0.83
2019-03-04T00:59:22.395Z,1.13
2019-03-04T01:01:29.757Z,0.83
2019-03-04T01:03:38.077Z,0.80
2019-03-04T01:05:45.466Z,0.80
2019-03-04T01:07:52.642Z,0.93
2019-03-04T01:09:59.890Z,0.70
2019-03-04T01:12:07.919Z,1.20
2019-03-04T01:14:15.111Z,0.87
2019-03-04T01:16:22.521Z,1.00
2019-03-04T01:18:29.778Z,0.80
2019-03-04T01:20:37.321Z,1.00
2019-03-04T01:22:44.479Z,0.70
2019-03-04T01:24:55.839Z,0.83
2019-03-04T01:27:04.587Z,1.10
2019-03-04T01:29:12.122Z,1.13
2019-03-04T01:31:21.680Z,0.80
2019-03-04T01:33:29.479Z,0.93
2019-03-04T01:35:42.961Z,0.83
2019-03-04T01:38:01.660Z,0.90
2019-03-04T01:40:12.221Z,0.93
2019-03-04T01:42:20.053Z,1.13
2019-03-04T01:44:35.246Z,0.90
2019-03-04T01:46:42.559Z,1.17
2019-03-04T01:48:49.800Z,1.00
2019-03-04T01:50:57.132Z,1.00
2019-03-04T01:53:04.364Z,0.67
2019-03-04T01:55:12.484Z,0.93
2019-03-04T01:57:20.301Z,0.80
2019-03-04T01:59:27.487Z,0.80
2019-03-04T02:01:34.698Z,1.00
2019-03-04T02:03:41.837Z,0.80
2019-03-04T02:08:02.147Z,1.00
2019-03-04T02:10:10.663Z,1.03
2019-03-04T02:12:19.088Z,0.80
2019-03-04T02:14:26.444Z,0.70
2019-03-04T02:16:34.559Z,0.70
2019-03-04T02:18:41.723Z,0.70
2019-03-04T02:20:50.256Z,0.93
2019-03-04T02:22:59.698Z,0.80
2019-03-04T02:25:07.245Z,0.70
2019-03-04T02:27:14.700Z,0.90
2019-03-04T02:29:21.785Z,0.80
2019-03-04T02:31:29.026Z,0.70
2019-03-04T02:33:36.987Z,0.77
2019-03-04T02:35:44.141Z,0.70
2019-03-04T02:37:51.713Z,0.67
2019-03-04T02:39:58.773Z,0.60
2019-03-04T02:42:06.084Z,0.93
2019-03-04T02:44:13.312Z,1.40
2019-03-04T02:46:20.465Z,0.80
2019-03-04T02:48:27.787Z,0.80
2019-03-04T02:50:35.811Z,0.77
2019-03-04T02:52:43.702Z,0.70
2019-03-04T02:54:50.854Z,0.60
2019-03-04T02:56:59.502Z,0.50
2019-03-04T02:59:07.009Z,0.70
2019-03-04T03:01:14.640Z,0.73
2019-03-04T03:03:21.780Z,0.53
2019-03-04T03:05:28.834Z,0.70
2019-03-04T03:07:36.609Z,0.70
2019-03-04T03:09:43.950Z,0.50
2019-03-04T03:11:52.421Z,0.80
2019-03-04T03:13:59.713Z,0.60
2019-03-04T03:16:07.727Z,0.50
2019-03-04T03:18:16.024Z,0.53
2019-03-04T03:20:23.300Z,0.50
2019-03-04T03:22:30.495Z,0.50
2019-03-04T03:24:37.796Z,0.60
2019-03-04T03:26:45.073Z,0.57
2019-03-04T03:28:53.549Z,0.50
2019-03-04T03:31:01.234Z,0.60
2019-03-04T03:33:09.364Z,0.60
2019-03-04T03:35:16.546Z,0.43
2019-03-04T03:37:24.570Z,0.50
2019-03-04T03:39:33.941Z,0.60
2019-03-04T03:41:41.170Z,0.50
2019-03-04T03:43:48.974Z,0.50
2019-03-04T03:45:56.283Z,0.50
2019-03-04T03:48:03.460Z,0.57
2019-03-04T03:50:17.394Z,0.60
2019-03-04T03:52:25.282Z,0.80
2019-03-04T03:54:32.416Z,1.27
2019-03-04T03:56:40.128Z,0.80
2019-03-04T03:58:47.672Z,1.00
2019-03-04T04:00:54.998Z,0.77
2019-03-04T04:03:02.185Z,0.83
2019-03-04T04:05:10.071Z,0.60
2019-03-04T04:07:17.097Z,0.70
2019-03-04T04:09:25.106Z,0.73
2019-03-04T04:11:33.849Z,0.60
2019-03-04T04:13:41.547Z,0.70
2019-03-04T04:15:48.480Z,0.70
2019-03-04T04:17:55.695Z,0.63
2019-03-04T04:20:03.241Z,0.50
2019-03-04T04:22:10.659Z,0.80
2019-03-04T04:24:17.947Z,0.60
2019-03-04T04:26:25.127Z,0.70
2019-03-04T04:28:34.860Z,0.53
2019-03-04T04:30:42.122Z,0.60
2019-03-04T04:32:50.027Z,0.57
2019-03-04T04:34:57.887Z,0.70
2019-03-04T04:37:05.204Z,0.40
2019-03-04T04:39:12.331Z,0.57
2019-03-04T04:41:19.494Z,0.60
2019-03-04T04:43:26.917Z,0.50
2019-03-04T04:45:34.104Z,0.47
2019-03-04T04:47:48.939Z,0.67
2019-03-04T04:49:56.105Z,0.60
2019-03-04T04:52:03.405Z,0.60
2019-03-04T04:54:11.219Z,0.50
2019-03-04T04:56:20.130Z,0.50
2019-03-04T04:58:27.220Z,0.70
2019-03-04T05:00:35.589Z,0.60
2019-03-04T05:02:42.575Z,0.50
2019-03-04T05:04:51.619Z,1.00
2019-03-04T05:06:59.057Z,0.60
2019-03-04T05:09:08.486Z,0.60
2019-03-04T05:11:17.881Z,0.90
2019-03-04T05:13:25.909Z,0.50
2019-03-04T05:15:33.144Z,0.50
2019-03-04T05:17:40.371Z,0.60
2019-03-04T05:19:47.595Z,0.47
2019-03-04T05:21:55.069Z,0.53
2019-03-04T05:24:03.157Z,0.50
2019-03-04T05:26:10.403Z,0.50
2019-03-04T05:28:18.302Z,0.43
2019-03-04T05:30:26.025Z,0.40
2019-03-04T05:32:33.326Z,0.80
2019-03-04T05:34:41.262Z,0.50
2019-03-04T05:36:49.038Z,0.60
2019-03-04T05:38:56.251Z,0.53
2019-03-04T05:41:03.475Z,0.50
2019-03-04T05:43:10.875Z,0.50
2019-03-04T05:45:18.798Z,0.60
2019-03-04T05:47:26.463Z,0.73
2019-03-04T05:49:33.770Z,0.40
2019-03-04T05:51:41.276Z,0.50
2019-03-04T05:53:48.700Z,0.50
2019-03-04T05:55:55.858Z,0.60
2019-03-04T05:58:03.746Z,0.50
2019-03-04T06:00:17.256Z,0.60
2019-03-04T06:02:24.494Z,0.60
2019-03-04T06:04:31.726Z,0.53
2019-03-04T06:07:02.313Z,0.47
2019-03-04T06:09:12.253Z,0.63
2019-03-04T06:11:20.149Z,0.50
2019-03-04T06:13:28.071Z,0.50
2019-03-04T06:15:36.063Z,0.70
2019-03-04T06:17:43.330Z,0.50
2019-03-04T06:19:51.243Z,0.60
2019-03-04T06:21:59.303Z,0.60
2019-03-04T06:24:07.114Z,0.60
2019-03-04T06:26:14.961Z,0.60
2019-03-04T06:28:22.414Z,0.50
2019-03-04T06:30:29.755Z,0.70
2019-03-04T06:32:36.981Z,0.60
2019-03-04T06:34:44.242Z,0.67
2019-03-04T06:36:53.083Z,0.40
2019-03-04T06:39:00.527Z,0.70
2019-03-04T06:41:09.058Z,0.60
2019-03-04T06:43:16.252Z,0.53
2019-03-04T06:45:23.432Z,0.57
2019-03-04T06:47:31.241Z,0.50
2019-03-04T06:49:38.347Z,0.57
2019-03-04T06:51:47.533Z,0.60
2019-03-04T06:54:21.831Z,0.50
2019-03-04T06:56:58.087Z,0.70
2019-03-04T06:59:23.728Z,0.60
2019-03-04T07:01:38.924Z,0.50
2019-03-04T07:03:54.827Z,0.57
2019-03-04T07:06:02.011Z,0.60
2019-03-04T07:08:10.527Z,0.70
2019-03-04T07:10:18.062Z,0.60
2019-03-04T07:12:25.221Z,0.60
2019-03-04T07:14:32.489Z,0.60
2019-03-04T07:16:39.931Z,0.50
2019-03-04T07:18:47.261Z,0.80
2019-03-04T07:20:54.386Z,0.60
2019-03-04T07:23:02.362Z,0.70
2019-03-04T07:25:10.564Z,0.50
2019-03-04T07:27:18.322Z,0.50
2019-03-04T07:29:45.008Z,0.50
2019-03-04T07:31:52.193Z,0.60
2019-03-04T07:33:59.367Z,0.40
2019-03-04T07:36:08.080Z,0.53
2019-03-04T07:38:49.195Z,0.50
2019-03-04T07:40:56.719Z,0.40
2019-03-04T07:43:03.856Z,0.40
2019-03-04T07:45:12.260Z,0.43
2019-03-04T07:47:19.588Z,0.40
2019-03-04T07:49:26.773Z,0.60
2019-03-04T07:51:34.033Z,0.50
2019-03-04T07:53:46.336Z,0.50
2019-03-04T07:55:52.062Z,0.50
2019-03-04T07:57:59.520Z,0.50
2019-03-04T08:00:07.039Z,0.50
2019-03-04T08:02:14.338Z,0.47
2019-03-04T08:04:21.420Z,0.47
2019-03-04T08:06:28.629Z,0.73
2019-03-04T08:08:36.401Z,0.50
2019-03-04T08:11:26.346Z,0.50
2019-03-04T08:13:40.393Z,0.57
2019-03-04T08:15:49.901Z,0.40
2019-03-04T08:17:57.088Z,0.40
2019-03-04T08:20:04.430Z,0.50
2019-03-04T08:22:11.781Z,0.57
2019-03-04T08:24:19.037Z,0.47
2019-03-04T08:26:26.796Z,0.57
2019-03-04T08:28:33.977Z,0.40
2019-03-04T08:30:41.658Z,0.60
2019-03-04T08:32:49.923Z,0.50
2019-03-04T08:34:57.220Z,0.50
2019-03-04T08:37:04.535Z,0.60
2019-03-04T08:39:13.084Z,0.50
2019-03-04T08:41:20.262Z,0.40
2019-03-04T08:43:27.616Z,0.40
2019-03-04T08:45:34.988Z,0.40
2019-03-04T08:49:55.208Z,0.60
2019-03-04T08:52:02.613Z,0.50
2019-03-04T08:54:09.976Z,0.40
2019-03-04T08:56:17.416Z,0.40
2019-03-04T08:58:24.548Z,0.83
2019-03-04T09:00:32.678Z,0.60
2019-03-04T09:02:40.027Z,0.40
2019-03-04T09:04:47.228Z,0.50
2019-03-04T09:06:54.389Z,0.40
2019-03-04T09:09:01.639Z,0.47
2019-03-04T09:11:08.531Z,0.50
2019-03-04T09:13:15.668Z,0.60
2019-03-04T09:15:22.914Z,0.50
2019-03-04T09:17:30.202Z,0.40
2019-03-04T09:19:37.411Z,0.70
2019-03-04T09:21:44.864Z,0.43
2019-03-04T09:23:51.970Z,0.40
2019-03-04T09:26:10.681Z,0.50
2019-03-04T09:28:18.159Z,0.50
2019-03-04T09:30:25.908Z,0.30
2019-03-04T09:32:33.329Z,0.40
2019-03-04T09:34:40.714Z,0.60
2019-03-04T09:36:48.171Z,0.43
2019-03-04T09:38:55.959Z,0.63
2019-03-04T09:41:03.316Z,0.50
2019-03-04T09:43:10.347Z,0.50
2019-03-04T09:45:17.889Z,0.57
2019-03-04T09:47:25.061Z,0.50
2019-03-04T09:49:32.353Z,0.43
2019-03-04T09:51:39.603Z,0.30
2019-03-04T09:53:46.533Z,0.60
2019-03-04T09:55:53.625Z,0.73
2019-03-04T09:58:00.931Z,0.97
2019-03-04T10:00:25.663Z,0.60
2019-03-04T10:02:41.459Z,0.53
2019-03-04T10:05:26.792Z,0.60
2019-03-04T10:07:41.314Z,0.60
2019-03-04T10:10:16.325Z,0.60
2019-03-04T10:12:30.105Z,0.40
2019-03-04T10:15:09.677Z,0.43
2019-03-04T10:17:39.947Z,0.60
2019-03-04T10:20:41.525Z,0.50
2019-03-04T10:23:28.348Z,0.70
2019-03-04T10:26:02.553Z,0.50
2019-03-04T10:28:44.310Z,0.53
2019-03-04T10:31:11.332Z,0.70
2019-03-04T10:34:08.034Z,0.60
2019-03-04T10:36:53.575Z,0.40
2019-03-04T10:39:26.166Z,0.50
2019-03-04T10:41:55.983Z,0.60
2019-03-04T10:44:43.113Z,0.40
2019-03-04T10:47:03.028Z,0.40
2019-03-04T10:49:09.988Z,0.50
2019-03-04T10:51:18.760Z,0.50
2019-03-04T10:53:26.928Z,0.50
2019-03-04T10:55:41.690Z,0.43
2019-03-04T10:57:43.092Z,0.40
2019-03-04T10:59:50.453Z,0.47
2019-03-04T11:01:57.898Z,0.33
2019-03-04T11:04:05.303Z,0.40
2019-03-04T11:06:13.189Z,0.40
2019-03-04T11:08:20.814Z,0.40
2019-03-04T11:10:28.102Z,0.70
2019-03-04T11:12:35.416Z,0.40
2019-03-04T11:14:42.788Z,0.40
2019-03-04T11:16:49.857Z,0.40
2019-03-04T11:18:56.972Z,0.40
2019-03-04T11:21:04.399Z,0.40
2019-03-04T11:23:15.005Z,0.30
2019-03-04T11:25:21.780Z,0.43
2019-03-04T11:27:28.932Z,0.40
2019-03-04T11:29:35.950Z,0.50
2019-03-04T11:31:44.217Z,0.40
2019-03-04T11:33:51.420Z,0.70
2019-03-04T11:35:58.713Z,0.60
2019-03-04T11:38:08.083Z,0.57
2019-03-04T11:40:28.441Z,0.53
2019-03-04T11:42:35.724Z,0.50
2019-03-04T11:44:42.908Z,0.50
2019-03-04T11:46:50.215Z,0.53
2019-03-04T11:48:57.623Z,0.40
2019-03-04T11:51:05.211Z,0.40
2019-03-04T11:53:13.053Z,0.50
2019-03-04T11:55:20.377Z,0.40
2019-03-04T11:57:27.449Z,0.40
2019-03-04T11:59:34.732Z,0.50
2019-03-04T12:01:48.130Z,0.43
2019-03-04T12:03:56.152Z,0.50
2019-03-04T12:06:03.205Z,0.33
2019-03-04T12:08:11.223Z,0.50
2019-03-04T12:10:18.666Z,0.30
2019-03-04T12:12:25.899Z,0.40
2019-03-04T12:14:33.638Z,0.43
2019-03-04T12:16:41.656Z,0.60
2019-03-04T12:18:48.986Z,0.50
2019-03-04T12:20:56.432Z,0.60
2019-03-04T12:23:05.411Z,0.47
2019-03-04T12:25:15.087Z,0.50
2019-03-04T12:27:22.400Z,0.40
2019-03-04T12:29:29.704Z,0.50
2019-03-04T12:31:42.020Z,0.40
2019-03-04T12:33:50.083Z,0.40
2019-03-04T12:35:57.635Z,0.60
2019-03-04T12:38:05.664Z,0.50
2019-03-04T12:40:14.387Z,0.50
2019-03-04T12:42:23.057Z,0.50
2019-03-04T12:44:30.222Z,0.30
2019-03-04T12:46:38.452Z,0.57
2019-03-04T12:48:46.550Z,0.40
2019-03-04T12:50:54.247Z,0.40
2019-03-04T12:53:02.647Z,0.30
2019-03-04T12:55:11.803Z,0.50
2019-03-04T12:57:20.429Z,0.50
2019-03-04T12:59:29.238Z,0.43
2019-03-04T13:01:36.629Z,0.40
2019-03-04T13:03:43.963Z,0.40
2019-03-04T13:05:51.036Z,0.60
2019-03-04T13:07:59.314Z,0.40
2019-03-04T13:10:07.814Z,0.50
2019-03-04T13:12:16.792Z,0.30
2019-03-04T13:14:23.851Z,0.40
2019-03-04T13:16:31.146Z,0.50
2019-03-04T13:18:39.710Z,0.40
2019-03-04T13:20:49.082Z,0.50
2019-03-04T13:22:59.173Z,0.50
2019-03-04T13:25:06.501Z,0.50
2019-03-04T13:27:23.365Z,0.57
2019-03-04T13:29:23.268Z,0.40
2019-03-04T13:31:31.940Z,0.40
2019-03-04T13:33:39.818Z,0.50
2019-03-04T13:35:47.487Z,0.40
2019-03-04T13:38:14.521Z,0.50
2019-03-04T13:40:21.951Z,0.50
2019-03-04T13:42:30.053Z,0.40
2019-03-04T13:44:38.022Z,0.53
2019-03-04T13:46:45.948Z,0.57
2019-03-04T13:48:53.153Z,0.50
2019-03-04T13:51:01.315Z,0.50
2019-03-04T13:53:08.661Z,0.60
2019-03-04T13:55:19.901Z,0.70
2019-03-04T13:57:27.437Z,0.97
2019-03-04T13:59:34.788Z,1.10
2019-03-04T14:01:42.875Z,0.80
2019-03-04T14:03:50.084Z,0.97
2019-03-04T14:05:57.403Z,1.10
2019-03-04T14:08:04.719Z,1.43
2019-03-04T14:10:13.063Z,1.20
2019-03-04T14:12:20.338Z,1.30
2019-03-04T14:14:28.465Z,1.40
2019-03-04T14:16:36.042Z,1.00
2019-03-04T14:18:43.918Z,0.90
2019-03-04T14:20:51.351Z,1.50
2019-03-04T14:22:59.068Z,1.27
2019-03-04T14:25:06.853Z,1.20
2019-03-04T14:27:14.008Z,1.20
2019-03-04T14:29:21.908Z,1.10
2019-03-04T14:31:29.233Z,1.10
2019-03-04T14:33:37.424Z,1.20
2019-03-04T14:35:45.504Z,1.53
2019-03-04T14:37:53.490Z,0.90
2019-03-04T14:40:01.648Z,1.23
2019-03-04T14:42:09.608Z,1.40
2019-03-04T14:44:16.965Z,1.10
2019-03-04T14:46:27.921Z,1.30
2019-03-04T14:48:40.673Z,1.07
2019-03-04T14:50:47.935Z,1.20
2019-03-04T14:52:55.334Z,1.10
2019-03-04T14:55:02.841Z,1.40
2019-03-04T14:57:10.222Z,1.03
2019-03-04T14:59:17.306Z,1.10
2019-03-04T15:01:25.330Z,1.03
2019-03-04T15:03:33.141Z,1.20
2019-03-04T15:05:40.640Z,1.00
